Terminal Aerodrome Forecast
Issued by NWS

Home | Current Version | Previous Version | Text Only | Print | Product List | Glossary On
Versions: 1 2 3 4 5 6 7 8 9 10 11 12 13 14 15 16 17 18 19 20 21 22 23 24 25 26 27 28 29 30 31 32 33 34 35 36 37 38 39 40
000
FTUS43 KLOT 211900 AAA
TAFMDW
TAF AMD
KMDW 211957Z 2120/2218 02013G18KT P6SM BKN025 BKN040
     FM212300 03012G17KT P6SM SCT025 SCT040
     FM220100 04005KT P6SM FEW020 FEW040
     FM221400 08006KT P6SM SKC=

USA.gov is the U.S. government's official web portal to all federal, state and local government web resources and services.